Time;durP1;ratioP1;P1;durP2;ratioP2;P2;SDS_P1;SDS_P2;PMS_P1;PMS_P2;Temp;Humidity;BMP_temperature;BMP_pressure;BME280_temperature;BME280_humidity;BME280_pressure;Samples;Min_cycle;Max_cycle;Signal;HPM_P1;HPM_P2
2022/10/19 03:02:17;;;;;;;;;;;7.90;99.90;;;;;;5356683;23;19959;-66
2022/10/19 03:04:44;;;;;;;;;;;7.90;99.90;;;;;;5016955;28;19983;-65
2022/10/19 03:07:11;;;;;;;;;;;7.80;99.90;;;;;;5015856;28;19965;-66
2022/10/19 03:09:37;;;;;;;;;;;7.80;99.90;;;;;;5013877;28;19976;-66
2022/10/19 03:12:04;;;;;;;;;;;7.80;99.90;;;;;;5007185;28;20035;-65
2022/10/19 03:14:31;;;;;;;;;;;7.70;99.90;;;;;;5006624;28;19969;-66
2022/10/19 03:16:57;;;;;;;;;;;7.60;99.90;;;;;;5006797;28;20017;-66
2022/10/19 03:19:25;;;;;;;;;;;7.50;99.90;;;;;;5005521;28;19969;-65
2022/10/19 03:21:52;;;;;;;;;;;7.50;99.90;;;;;;5007996;28;20024;-65
2022/10/19 03:24:19;;;;;;;;;;;7.50;99.90;;;;;;5003523;28;20138;-66
2022/10/19 03:26:45;;;;;;;;;;;7.50;99.90;;;;;;4997832;28;19926;-66
2022/10/19 03:29:12;;;;;;;;;;;7.40;99.90;;;;;;5001946;28;19933;-66
2022/10/19 03:31:38;;;;;;;;;;;7.40;99.90;;;;;;5001940;28;19973;-66
2022/10/19 03:34:05;;;;;;;;;;;7.40;99.90;;;;;;5005624;28;20309;-66
2022/10/19 03:36:34;;;;;;;;;;;7.30;99.90;;;;;;5011746;28;20296;-65
2022/10/19 03:39:02;;;;;;;;;;;7.30;99.90;;;;;;5010557;28;19926;-65
2022/10/19 03:41:30;;;;;;;;;;;7.30;99.90;;;;;;5007300;28;20008;-66
2022/10/19 03:43:57;;;;;;;;;;;7.30;99.90;;;;;;5005128;28;19961;-65
2022/10/19 03:46:24;;;;;;;;;;;7.40;99.90;;;;;;5007591;28;19925;-66
2022/10/19 03:48:51;;;;;;;;;;;7.30;99.90;;;;;;5002434;28;19933;-66
2022/10/19 03:51:18;;;;;;;;;;;7.30;99.90;;;;;;5001554;28;19979;-65
2022/10/19 03:53:47;;;;;;;;;;;7.30;99.90;;;;;;5005166;28;19925;-65
2022/10/19 03:56:14;;;;;;;;;;;7.30;99.90;;;;;;5006086;28;19925;-65
2022/10/19 03:58:42;;;;;;;;;;;7.30;99.90;;;;;;5002167;28;19925;-65
2022/10/19 04:01:10;;;;;;;;;;;7.30;99.90;;;;;;5002008;28;19932;-66
2022/10/19 04:03:37;;;;;;;;;;;7.30;99.90;;;;;;5002341;28;19964;-68
2022/10/19 04:06:05;;;;;;;;;;;7.30;99.90;;;;;;5007373;28;19949;-67
2022/10/19 04:08:32;;;;;;;;;;;7.20;99.90;;;;;;5007047;28;19929;-66
2022/10/19 04:11:01;;;;;;;;;;;7.20;99.90;;;;;;5010821;28;19941;-66
2022/10/19 04:13:27;;;;;;;;;;;7.10;99.90;;;;;;5008769;28;19925;-67
2022/10/19 04:15:54;;;;;;;;;;;7.10;99.90;;;;;;5005950;28;20403;-67
2022/10/19 04:18:21;;;;;;;;;;;7.10;99.90;;;;;;5006384;28;19929;-65
2022/10/19 04:20:48;;;;;;;;;;;7.00;99.90;;;;;;5009838;28;20344;-67
2022/10/19 04:23:15;;;;;;;;;;;7.00;99.90;;;;;;5002002;28;19933;-66
2022/10/19 04:25:41;;;;;;;;;;;7.00;99.90;;;;;;5008381;28;19932;-67
2022/10/19 04:28:09;;;;;;;;;;;7.00;99.90;;;;;;4998914;28;19926;-67
2022/10/19 04:30:36;;;;;;;;;;;7.00;99.90;;;;;;5006686;28;19930;-67
2022/10/19 04:33:03;;;;;;;;;;;7.00;99.90;;;;;;5011479;28;20108;-66
2022/10/19 04:35:30;;;;;;;;;;;6.90;99.90;;;;;;5007733;28;19926;-67
2022/10/19 04:37:58;;;;;;;;;;;6.90;99.90;;;;;;4999275;28;19934;-66
2022/10/19 04:40:25;;;;;;;;;;;6.90;99.90;;;;;;5008940;28;19980;-66
2022/10/19 04:42:51;;;;;;;;;;;6.90;99.90;;;;;;5009818;28;19929;-67
2022/10/19 04:45:20;;;;;;;;;;;7.00;99.90;;;;;;5003134;28;19933;-66
2022/10/19 04:47:46;;;;;;;;;;;6.90;99.90;;;;;;5002861;28;19948;-66
2022/10/19 04:50:13;;;;;;;;;;;6.90;99.90;;;;;;5001879;28;19925;-66
2022/10/19 04:52:40;;;;;;;;;;;6.80;99.90;;;;;;5004102;28;19932;-66
2022/10/19 04:55:07;;;;;;;;;;;6.80;99.90;;;;;;5009209;28;19925;-67
2022/10/19 04:57:34;;;;;;;;;;;6.80;99.90;;;;;;4996152;28;19925;-65
2022/10/19 05:00:00;;;;;;;;;;;6.70;99.90;;;;;;5001632;28;19940;-65
2022/10/19 05:02:28;;;;;;;;;;;6.70;99.90;;;;;;4999417;28;19949;-64
2022/10/19 05:04:55;;;;;;;;;;;6.70;99.90;;;;;;5003233;28;19929;-66
2022/10/19 05:07:22;;;;;;;;;;;6.70;99.90;;;;;;5007583;28;19967;-66
2022/10/19 05:09:48;;;;;;;;;;;6.70;99.90;;;;;;5003880;28;19929;-66
2022/10/19 05:12:15;;;;;;;;;;;6.60;99.90;;;;;;5003494;28;19925;-67
2022/10/19 05:14:42;;;;;;;;;;;6.60;99.90;;;;;;5000580;28;19925;-68
2022/10/19 05:17:09;;;;;;;;;;;6.60;99.90;;;;;;5009640;28;19925;-67
2022/10/19 05:19:37;;;;;;;;;;;6.60;99.90;;;;;;5001729;28;20377;-69
2022/10/19 05:22:04;;;;;;;;;;;6.60;99.90;;;;;;5005683;28;19987;-67
2022/10/19 05:24:31;;;;;;;;;;;6.60;99.90;;;;;;5006534;28;19929;-67
2022/10/19 05:26:58;;;;;;;;;;;6.60;99.90;;;;;;5001961;28;19925;-68
2022/10/19 05:29:24;;;;;;;;;;;6.50;99.90;;;;;;5008257;28;19930;-69
2022/10/19 05:31:51;;;;;;;;;;;6.50;99.90;;;;;;4993643;28;19933;-69
2022/10/19 05:34:18;;;;;;;;;;;6.50;99.90;;;;;;5005644;28;19929;-68
2022/10/19 05:36:46;;;;;;;;;;;6.50;99.90;;;;;;4997318;28;19926;-67
2022/10/19 05:39:14;;;;;;;;;;;6.50;99.90;;;;;;5001612;28;20391;-68
2022/10/19 05:41:42;;;;;;;;;;;6.50;99.90;;;;;;5004450;28;19929;-68
2022/10/19 05:44:12;;;;;;;;;;;6.50;99.90;;;;;;4997370;28;19933;-67
2022/10/19 05:46:38;;;;;;;;;;;6.40;99.90;;;;;;4993588;28;20405;-67
2022/10/19 05:49:05;;;;;;;;;;;6.30;99.90;;;;;;5005737;28;19929;-68
2022/10/19 05:51:32;;;;;;;;;;;6.30;99.90;;;;;;5002670;28;19980;-68
2022/10/19 05:54:00;;;;;;;;;;;6.20;99.90;;;;;;5002452;28;19929;-68
2022/10/19 05:56:28;;;;;;;;;;;6.10;99.90;;;;;;4992959;28;19991;-69
2022/10/19 05:58:55;;;;;;;;;;;6.10;99.90;;;;;;5004591;28;19933;-69
2022/10/19 06:01:23;;;;;;;;;;;6.10;99.90;;;;;;5007791;28;19925;-67
2022/10/19 06:03:51;;;;;;;;;;;6.10;99.90;;;;;;4995378;28;19984;-68
2022/10/19 06:06:19;;;;;;;;;;;6.10;99.90;;;;;;5007860;28;19929;-69
2022/10/19 06:08:45;;;;;;;;;;;6.10;99.90;;;;;;4993151;28;19935;-68
2022/10/19 06:11:14;;;;;;;;;;;6.20;99.90;;;;;;5004792;28;19968;-68
2022/10/19 06:13:42;;;;;;;;;;;6.20;99.90;;;;;;4993194;28;19930;-67
2022/10/19 06:16:09;;;;;;;;;;;6.30;99.90;;;;;;4997110;28;19933;-68
2022/10/19 06:18:36;;;;;;;;;;;6.30;99.90;;;;;;5005477;28;19925;-67
2022/10/19 06:21:04;;;;;;;;;;;6.40;99.90;;;;;;4996773;28;20377;-68
2022/10/19 06:23:31;;;;;;;;;;;6.50;99.90;;;;;;5007119;28;19929;-68
2022/10/19 06:25:58;;;;;;;;;;;6.60;99.90;;;;;;5002642;28;19926;-68
2022/10/19 06:28:26;;;;;;;;;;;6.60;99.90;;;;;;5002922;28;19926;-68
2022/10/19 06:30:52;;;;;;;;;;;6.60;99.90;;;;;;5010302;28;19929;-68
2022/10/19 06:33:19;;;;;;;;;;;6.60;99.90;;;;;;5008358;28;19933;-69
2022/10/19 06:35:46;;;;;;;;;;;6.70;99.90;;;;;;5007149;28;19926;-67
2022/10/19 06:38:13;;;;;;;;;;;6.80;99.90;;;;;;4999962;28;19925;-70
2022/10/19 06:40:40;;;;;;;;;;;6.90;99.90;;;;;;4999369;28;19933;-68
2022/10/19 06:43:06;;;;;;;;;;;7.00;99.90;;;;;;4999282;28;19925;-69
2022/10/19 06:45:37;;;;;;;;;;;7.10;99.90;;;;;;5003796;28;20028;-68
2022/10/19 06:48:03;;;;;;;;;;;7.20;99.90;;;;;;5001360;28;19949;-67
2022/10/19 06:50:31;;;;;;;;;;;7.30;99.90;;;;;;5008799;28;19968;-68
2022/10/19 06:52:58;;;;;;;;;;;7.30;99.90;;;;;;5002373;28;19925;-68
2022/10/19 06:55:25;;;;;;;;;;;7.30;99.90;;;;;;5009661;28;19980;-68
2022/10/19 06:57:51;;;;;;;;;;;7.40;99.90;;;;;;4996161;28;19929;-66
2022/10/19 07:00:18;;;;;;;;;;;7.50;99.90;;;;;;5004202;28;20347;-69
2022/10/19 07:02:46;;;;;;;;;;;7.60;99.90;;;;;;4998725;28;19925;-67
2022/10/19 07:05:13;;;;;;;;;;;7.70;99.90;;;;;;5002966;28;19926;-68
2022/10/19 07:07:40;;;;;;;;;;;7.70;99.90;;;;;;4997973;28;19993;-68
2022/10/19 07:10:07;;;;;;;;;;;7.80;99.90;;;;;;5004849;28;19962;-67
2022/10/19 07:12:33;;;;;;;;;;;7.90;99.90;;;;;;5010328;28;19925;-68
2022/10/19 07:15:00;;;;;;;;;;;8.00;99.90;;;;;;5003943;28;19926;-67
2022/10/19 07:17:27;;;;;;;;;;;8.10;99.90;;;;;;5001651;28;19926;-68
2022/10/19 07:19:55;;;;;;;;;;;8.20;99.90;;;;;;5005473;28;19972;-68
2022/10/19 07:22:22;;;;;;;;;;;8.30;99.90;;;;;;5004540;28;19938;-69
2022/10/19 07:24:49;;;;;;;;;;;8.30;99.90;;;;;;4997102;28;19932;-70
2022/10/19 07:27:16;;;;;;;;;;;8.50;99.90;;;;;;5000257;28;19925;-68
2022/10/19 07:29:42;;;;;;;;;;;8.60;99.90;;;;;;4996288;28;19984;-68
2022/10/19 07:32:09;;;;;;;;;;;8.80;99.90;;;;;;4998579;28;19957;-66
2022/10/19 07:34:36;;;;;;;;;;;8.90;99.90;;;;;;5002142;28;19926;-68
2022/10/19 07:37:04;;;;;;;;;;;8.90;99.90;;;;;;5004109;28;19933;-69
2022/10/19 07:39:31;;;;;;;;;;;9.10;99.90;;;;;;4998037;28;20011;-68
2022/10/19 07:41:57;;;;;;;;;;;9.10;99.90;;;;;;5000049;28;19930;-68
2022/10/19 07:44:24;;;;;;;;;;;9.20;99.90;;;;;;5001090;28;20404;-69
2022/10/19 07:46:51;;;;;;;;;;;9.30;99.90;;;;;;5007028;28;20393;-65
2022/10/19 07:49:18;;;;;;;;;;;9.40;99.90;;;;;;4997421;28;19930;-68
2022/10/19 07:51:45;;;;;;;;;;;9.40;99.90;;;;;;5006496;28;19957;-69
2022/10/19 07:54:14;;;;;;;;;;;9.40;99.90;;;;;;4999967;28;19930;-68
2022/10/19 07:56:40;;;;;;;;;;;9.60;99.90;;;;;;5003721;28;20389;-69
2022/10/19 07:59:07;;;;;;;;;;;9.70;99.90;;;;;;4998057;28;20021;-69
2022/10/19 08:01:35;;;;;;;;;;;9.80;99.90;;;;;;4996546;28;19926;-69
2022/10/19 08:04:02;;;;;;;;;;;9.90;99.90;;;;;;4997448;28;19926;-68
2022/10/19 08:06:29;;;;;;;;;;;10.00;99.90;;;;;;5000875;28;19926;-68
2022/10/19 08:08:56;;;;;;;;;;;10.10;99.90;;;;;;5000695;28;19930;-68
2022/10/19 08:11:25;;;;;;;;;;;10.20;99.90;;;;;;5001680;28;19996;-69
2022/10/19 08:13:52;;;;;;;;;;;10.30;99.90;;;;;;5010025;28;19972;-67
2022/10/19 08:16:24;;;;;;;;;;;10.40;99.90;;;;;;5009702;28;20321;-69
2022/10/19 08:18:50;;;;;;;;;;;10.60;99.90;;;;;;4996168;28;20355;-66
2022/10/19 08:21:17;;;;;;;;;;;10.80;99.90;;;;;;5006251;28;20007;-67
2022/10/19 08:23:44;;;;;;;;;;;10.80;99.90;;;;;;5001791;28;19929;-68
2022/10/19 08:26:11;;;;;;;;;;;10.70;99.90;;;;;;5004609;28;19926;-69
2022/10/19 08:28:39;;;;;;;;;;;10.80;99.90;;;;;;4996334;28;20332;-69
2022/10/19 08:31:10;;;;;;;;;;;10.90;99.90;;;;;;5003863;28;19925;-69
2022/10/19 08:33:36;;;;;;;;;;;11.00;99.90;;;;;;4996689;28;19953;-67
2022/10/19 08:36:04;;;;;;;;;;;11.10;99.90;;;;;;4999815;28;19932;-69
2022/10/19 08:38:31;;;;;;;;;;;11.20;99.90;;;;;;4996413;28;19930;-68
2022/10/19 08:40:58;;;;;;;;;;;11.30;99.90;;;;;;5003977;28;20311;-67
2022/10/19 08:43:31;;;;;;;;;;;11.50;99.90;;;;;;4996966;28;19926;-68
2022/10/19 08:46:01;;;;;;;;;;;11.60;99.90;;;;;;5019051;28;19930;-69
2022/10/19 08:48:31;;;;;;;;;;;11.80;99.90;;;;;;5006091;28;19925;-69
2022/10/19 08:50:59;;;;;;;;;;;11.70;99.90;;;;;;4998515;28;19933;-67
2022/10/19 08:53:30;;;;;;;;;;;11.80;99.90;;;;;;4999437;28;19972;-69
2022/10/19 08:56:03;;;;;;;;;;;11.80;99.90;;;;;;5010653;28;19926;-69
2022/10/19 08:58:35;;;;;;;;;;;11.60;99.90;;;;;;5003122;28;19926;-70
2022/10/19 09:01:07;;;;;;;;;;;11.30;99.90;;;;;;4999945;28;20057;-68
2022/10/19 09:03:37;;;;;;;;;;;11.10;99.90;;;;;;5008696;28;20339;-68
2022/10/19 09:06:11;;;;;;;;;;;11.10;99.90;;;;;;4999698;28;19926;-68
2022/10/19 09:08:38;;;;;;;;;;;10.90;99.90;;;;;;4999967;28;19925;-67
2022/10/19 09:11:06;;;;;;;;;;;10.70;99.90;;;;;;4996738;28;19925;-68
2022/10/19 09:13:36;;;;;;;;;;;10.60;99.90;;;;;;4998876;28;19926;-68
2022/10/19 09:16:05;;;;;;;;;;;10.50;99.90;;;;;;4997084;28;19933;-69
2022/10/19 09:18:33;;;;;;;;;;;10.40;99.90;;;;;;5006302;28;20344;-69
2022/10/19 09:21:02;;;;;;;;;;;10.40;99.90;;;;;;5002451;28;19929;-68
2022/10/19 09:23:29;;;;;;;;;;;10.40;99.90;;;;;;5001988;28;19930;-70
2022/10/19 09:25:57;;;;;;;;;;;10.40;99.90;;;;;;4998513;28;19926;-68
2022/10/19 09:28:33;;;;;;;;;;;10.40;99.90;;;;;;5002549;28;19929;-67
2022/10/19 09:30:59;;;;;;;;;;;10.40;99.90;;;;;;4993340;28;19926;-66
2022/10/19 09:33:30;;;;;;;;;;;10.40;99.90;;;;;;5002438;28;19926;-69
2022/10/19 09:35:58;;;;;;;;;;;10.30;99.90;;;;;;5008560;28;19972;-70
2022/10/19 09:38:26;;;;;;;;;;;10.30;99.90;;;;;;5000251;28;19972;-68
2022/10/19 09:40:53;;;;;;;;;;;10.30;99.90;;;;;;4999653;28;19929;-70
2022/10/19 09:43:21;;;;;;;;;;;10.50;99.90;;;;;;4994769;28;19929;-66
2022/10/19 09:45:50;;;;;;;;;;;10.50;99.90;;;;;;5007524;28;19929;-68
2022/10/19 09:48:20;;;;;;;;;;;10.60;99.90;;;;;;5001804;28;19925;-68
2022/10/19 09:50:51;;;;;;;;;;;10.70;99.90;;;;;;5006018;28;19932;-69
2022/10/19 09:53:19;;;;;;;;;;;10.80;99.90;;;;;;5003330;28;19937;-67
2022/10/19 09:55:48;;;;;;;;;;;11.00;99.90;;;;;;5003374;28;19932;-69
2022/10/19 09:58:17;;;;;;;;;;;11.10;99.90;;;;;;5001079;28;19983;-68
2022/10/19 10:00:45;;;;;;;;;;;11.30;99.90;;;;;;4998859;28;19930;-69
2022/10/19 10:03:23;;;;;;;;;;;11.40;99.90;;;;;;5007835;28;19996;-69
2022/10/19 10:05:52;;;;;;;;;;;11.50;99.90;;;;;;4994652;28;20003;-69
2022/10/19 10:08:20;;;;;;;;;;;11.80;99.90;;;;;;5007030;28;19926;-69
2022/10/19 10:10:48;;;;;;;;;;;12.00;99.90;;;;;;4995021;28;19964;-68
2022/10/19 10:13:16;;;;;;;;;;;12.00;99.90;;;;;;4998413;28;19925;-69
2022/10/19 10:15:44;;;;;;;;;;;11.90;99.90;;;;;;5000313;28;20420;-69
2022/10/19 10:18:15;;;;;;;;;;;11.80;99.90;;;;;;4997260;28;20032;-69
2022/10/19 10:20:56;;;;;;;;;;;11.70;99.90;;;;;;5006429;28;19957;-66
2022/10/19 10:23:25;;;;;;;;;;;11.60;99.90;;;;;;4998628;28;19925;-69
2022/10/19 10:25:54;;;;;;;;;;;11.70;99.90;;;;;;5004468;28;19980;-68
2022/10/19 10:28:22;;;;;;;;;;;11.80;99.90;;;;;;5004102;28;20292;-68
2022/10/19 10:30:52;;;;;;;;;;;12.00;99.90;;;;;;5000369;28;20380;-68
2022/10/19 10:33:24;;;;;;;;;;;12.20;99.90;;;;;;5002371;28;19926;-68
2022/10/19 10:35:54;;;;;;;;;;;12.50;99.90;;;;;;5016777;28;20012;-69
2022/10/19 10:38:23;;;;;;;;;;;12.70;99.90;;;;;;4997482;28;19929;-68
2022/10/19 10:40:52;;;;;;;;;;;12.80;99.90;;;;;;5004881;28;19926;-68
2022/10/19 10:43:20;;;;;;;;;;;13.00;99.90;;;;;;4995767;28;19926;-69
2022/10/19 10:45:50;;;;;;;;;;;13.40;99.90;;;;;;4992487;28;19934;-68
2022/10/19 10:48:20;;;;;;;;;;;13.80;99.90;;;;;;4994582;28;20411;-69
2022/10/19 10:50:47;;;;;;;;;;;15.00;99.90;;;;;;4998453;28;19940;-69
2022/10/19 10:53:35;;;;;;;;;;;16.60;99.90;;;;;;4996036;28;19933;-68
2022/10/19 10:56:04;;;;;;;;;;;16.40;99.90;;;;;;5004804;28;19929;-69
2022/10/19 10:58:35;;;;;;;;;;;18.10;99.90;;;;;;4998535;28;19925;-68
2022/10/19 11:01:05;;;;;;;;;;;20.40;99.90;;;;;;4998895;28;19933;-68
2022/10/19 11:03:32;;;;;;;;;;;20.80;99.90;;;;;;5000813;28;19926;-69
2022/10/19 11:06:01;;;;;;;;;;;22.20;99.90;;;;;;4997545;28;19949;-69
2022/10/19 11:08:31;;;;;;;;;;;23.20;99.90;;;;;;4993188;28;19969;-69
2022/10/19 11:11:00;;;;;;;;;;;24.50;99.90;;;;;;5000322;28;19980;-69
2022/10/19 11:13:31;;;;;;;;;;;26.30;99.90;;;;;;4996537;28;20396;-69
2022/10/19 11:16:00;;;;;;;;;;;27.20;99.90;;;;;;4997501;28;20384;-68
2022/10/19 11:18:29;;;;;;;;;;;24.90;99.90;;;;;;5005076;28;19925;-70
2022/10/19 11:20:59;;;;;;;;;;;24.50;99.90;;;;;;4995787;28;20073;-70
2022/10/19 11:23:31;;;;;;;;;;;26.60;99.90;;;;;;5000928;28;20285;-69
2022/10/19 11:26:03;;;;;;;;;;;28.10;99.90;;;;;;5012241;28;19926;-70
2022/10/19 11:28:43;;;;;;;;;;;29.80;99.90;;;;;;5003181;28;19930;-69
2022/10/19 11:31:14;;;;;;;;;;;30.40;99.90;;;;;;4997868;28;19925;-70
2022/10/19 11:33:48;;;;;;;;;;;29.90;99.90;;;;;;5003365;28;19937;-70
2022/10/19 11:36:19;;;;;;;;;;;28.50;99.90;;;;;;4997271;28;19930;-69
2022/10/19 11:38:49;;;;;;;;;;;27.40;99.90;;;;;;5001730;28;20384;-69
2022/10/19 11:41:21;;;;;;;;;;;26.90;99.90;;;;;;5002681;28;20001;-69
2022/10/19 11:43:56;;;;;;;;;;;27.70;99.90;;;;;;5009340;28;19941;-69
2022/10/19 11:46:25;;;;;;;;;;;28.20;99.90;;;;;;4997914;28;19992;-70
2022/10/19 11:48:59;;;;;;;;;;;29.80;99.90;;;;;;4997189;28;19930;-70
2022/10/19 11:51:27;;;;;;;;;;;30.20;99.90;;;;;;4996708;28;19926;-68
2022/10/19 11:53:59;;;;;;;;;;;30.70;99.90;;;;;;5005651;28;19934;-68
2022/10/19 11:56:30;;;;;;;;;;;30.20;99.90;;;;;;5004930;28;19926;-70
2022/10/19 11:59:02;;;;;;;;;;;30.40;99.90;;;;;;5000247;28;19925;-70
2022/10/19 12:01:33;;;;;;;;;;;31.60;99.90;;;;;;5004525;28;20389;-69
2022/10/19 12:04:12;;;;;;;;;;;32.60;99.90;;;;;;4994947;28;19925;-69
2022/10/19 12:06:41;;;;;;;;;;;32.90;99.90;;;;;;4996163;28;20332;-69
2022/10/19 12:09:15;;;;;;;;;;;32.30;99.90;;;;;;4998855;28;19926;-69
2022/10/19 12:11:48;;;;;;;;;;;32.80;99.90;;;;;;5005666;28;19930;-69
2022/10/19 12:14:20;;;;;;;;;;;33.20;99.90;;;;;;4977479;28;20239;-69
2022/10/19 12:16:48;;;;;;;;;;;33.50;99.90;;;;;;5000602;28;20374;-71
2022/10/19 12:19:18;;;;;;;;;;;34.50;99.90;;;;;;4993138;28;19937;-70
2022/10/19 12:21:45;;;;;;;;;;;33.90;99.90;;;;;;5008394;28;19937;-69
2022/10/19 12:24:13;;;;;;;;;;;34.20;99.90;;;;;;4999527;28;20024;-69
2022/10/19 12:26:40;;;;;;;;;;;34.20;99.90;;;;;;5006017;28;19929;-69
2022/10/19 12:29:13;;;;;;;;;;;32.70;99.90;;;;;;5000896;28;19930;-70
2022/10/19 12:31:41;;;;;;;;;;;32.60;99.90;;;;;;4998292;28;19984;-69
2022/10/19 12:34:10;;;;;;;;;;;31.70;99.90;;;;;;5004819;28;19984;-69
2022/10/19 12:36:42;;;;;;;;;;;32.40;99.90;;;;;;5001824;28;19980;-69
2022/10/19 12:39:12;;;;;;;;;;;31.60;99.90;;;;;;4997613;28;19933;-69
2022/10/19 12:41:44;;;;;;;;;;;30.00;99.90;;;;;;5004052;28;19929;-70
2022/10/19 12:44:24;;;;;;;;;;;29.00;99.90;;;;;;4997100;28;19957;-69
2022/10/19 12:46:54;;;;;;;;;;;30.20;99.90;;;;;;5006404;28;20285;-69
2022/10/19 12:49:37;;;;;;;;;;;31.50;99.90;;;;;;4996272;28;19926;-70
2022/10/19 12:52:06;;;;;;;;;;;31.60;99.90;;;;;;4993054;28;20396;-69
2022/10/19 12:54:34;;;;;;;;;;;30.90;99.90;;;;;;5001448;28;20293;-70
2022/10/19 12:57:02;;;;;;;;;;;29.80;99.90;;;;;;5004181;28;19925;-69
2022/10/19 12:59:30;;;;;;;;;;;30.30;99.90;;;;;;4994468;28;19926;-70
2022/10/19 13:01:58;;;;;;;;;;;29.00;99.90;;;;;;5001501;28;19929;-69
2022/10/19 13:04:26;;;;;;;;;;;28.00;99.90;;;;;;5001395;28;19926;-68
2022/10/19 13:07:00;;;;;;;;;;;27.10;99.90;;;;;;5009157;28;20036;-69
2022/10/19 13:09:30;;;;;;;;;;;27.00;99.90;;;;;;5008633;28;19935;-69
2022/10/19 13:12:19;;;;;;;;;;;27.40;99.90;;;;;;5002195;28;20299;-69
2022/10/19 13:14:47;;;;;;;;;;;27.30;99.90;;;;;;4968444;28;19969;-69
2022/10/19 13:17:39;;;;;;;;;;;26.80;99.90;;;;;;4997509;28;19926;-70
2022/10/19 13:20:24;;;;;;;;;;;26.60;99.90;;;;;;4999146;28;20388;-68
2022/10/19 13:22:51;;;;;;;;;;;26.50;99.90;;;;;;4998133;28;20004;-69
2022/10/19 13:25:22;;;;;;;;;;;26.90;99.90;;;;;;4997989;28;19958;-70
2022/10/19 13:27:49;;;;;;;;;;;25.70;99.90;;;;;;5003596;28;20345;-68
2022/10/19 13:30:31;;;;;;;;;;;25.60;99.90;;;;;;4995360;28;19930;-69
2022/10/19 13:32:59;;;;;;;;;;;25.80;99.90;;;;;;5007827;28;19979;-70
2022/10/19 13:35:33;;;;;;;;;;;25.70;99.90;;;;;;5008840;28;20419;-70
2022/10/19 13:38:18;;;;;;;;;;;25.50;99.90;;;;;;4997865;28;19977;-69
2022/10/19 13:40:56;;;;;;;;;;;25.20;99.90;;;;;;5004763;28;20364;-70
2022/10/19 13:43:24;;;;;;;;;;;25.40;99.90;;;;;;5004064;28;19925;-69
2022/10/19 13:45:53;;;;;;;;;;;25.10;99.90;;;;;;5000275;28;19977;-69
2022/10/19 13:48:25;;;;;;;;;;;25.00;99.90;;;;;;4995845;28;19933;-70
2022/10/19 13:50:54;;;;;;;;;;;25.00;99.90;;;;;;4998814;28;19925;-69
2022/10/19 13:53:24;;;;;;;;;;;24.80;99.90;;;;;;4995495;28;19926;-70
2022/10/19 13:56:06;;;;;;;;;;;24.70;99.90;;;;;;5002976;28;19996;-69
2022/10/19 13:58:48;;;;;;;;;;;24.10;99.90;;;;;;5004081;28;20377;-69
2022/10/19 14:01:26;;;;;;;;;;;23.40;99.90;;;;;;5006198;28;19929;-70
2022/10/19 14:04:03;;;;;;;;;;;22.60;99.90;;;;;;4999015;28;19925;-69
2022/10/19 14:06:33;;;;;;;;;;;22.00;99.90;;;;;;4998844;28;19926;-69
2022/10/19 14:09:15;;;;;;;;;;;21.70;99.90;;;;;;4991125;28;19926;-69
2022/10/19 14:11:43;;;;;;;;;;;21.30;99.90;;;;;;4998725;28;20408;-69
2022/10/19 14:14:14;;;;;;;;;;;21.10;99.90;;;;;;5003151;28;19925;-69
2022/10/19 14:16:49;;;;;;;;;;;21.10;99.90;;;;;;4999847;28;19925;-70
2022/10/19 14:19:25;;;;;;;;;;;20.80;99.90;;;;;;4998951;28;20392;-69
2022/10/19 14:21:52;;;;;;;;;;;20.60;99.90;;;;;;5006902;28;19933;-69
2022/10/19 14:24:21;;;;;;;;;;;20.90;99.90;;;;;;5008841;28;20380;-69
2022/10/19 14:26:47;;;;;;;;;;;21.30;99.90;;;;;;5004113;28;19961;-70
2022/10/19 14:29:14;;;;;;;;;;;21.50;99.90;;;;;;5001784;28;19929;-70
2022/10/19 14:31:41;;;;;;;;;;;21.80;99.90;;;;;;4996910;28;19980;-70
2022/10/19 14:34:09;;;;;;;;;;;22.60;99.90;;;;;;5009651;28;19925;-69
2022/10/19 14:36:39;;;;;;;;;;;23.40;99.90;;;;;;4996461;28;19925;-69
2022/10/19 14:39:06;;;;;;;;;;;24.00;99.90;;;;;;5000978;28;20420;-69
2022/10/19 14:41:34;;;;;;;;;;;24.90;99.90;;;;;;4999979;28;19926;-70
2022/10/19 14:44:01;;;;;;;;;;;25.30;99.90;;;;;;5002168;28;19972;-70
2022/10/19 14:46:29;;;;;;;;;;;25.30;99.90;;;;;;5005614;28;19988;-69
2022/10/19 14:48:59;;;;;;;;;;;25.40;99.90;;;;;;5001486;28;19984;-69
2022/10/19 14:51:29;;;;;;;;;;;25.10;99.90;;;;;;4997936;28;19988;-70
2022/10/19 14:54:01;;;;;;;;;;;25.60;99.90;;;;;;5003441;28;19929;-70
2022/10/19 14:56:31;;;;;;;;;;;26.30;99.90;;;;;;5004285;28;19933;-70
2022/10/19 14:59:00;;;;;;;;;;;26.50;99.90;;;;;;5002368;28;19980;-69
2022/10/19 15:01:27;;;;;;;;;;;26.10;99.90;;;;;;4997897;28;19933;-70
2022/10/19 15:03:54;;;;;;;;;;;26.20;99.90;;;;;;5006329;28;19972;-69
2022/10/19 15:06:22;;;;;;;;;;;25.90;99.90;;;;;;5003857;28;19979;-69
2022/10/19 15:08:50;;;;;;;;;;;25.00;99.90;;;;;;5002305;28;19929;-69
2022/10/19 15:11:29;;;;;;;;;;;24.00;99.90;;;;;;4999782;28;19969;-69
2022/10/19 15:14:01;;;;;;;;;;;24.10;99.90;;;;;;5027311;28;20356;-69
2022/10/19 15:16:42;;;;;;;;;;;25.00;99.90;;;;;;5002068;28;20351;-69
2022/10/19 15:19:16;;;;;;;;;;;25.50;99.90;;;;;;5005334;28;19929;-73
2022/10/19 15:21:43;;;;;;;;;;;25.40;99.90;;;;;;5009143;28;19925;-69
2022/10/19 15:24:21;;;;;;;;;;;24.40;99.90;;;;;;5004812;28;19926;-69
2022/10/19 15:26:51;;;;;;;;;;;23.60;99.90;;;;;;5010245;28;19968;-69
2022/10/19 15:29:21;;;;;;;;;;;23.20;99.90;;;;;;5000431;28;20012;-70
2022/10/19 15:31:47;;;;;;;;;;;23.00;99.90;;;;;;5001239;28;19940;-69
2022/10/19 15:34:22;;;;;;;;;;;22.40;99.90;;;;;;5004416;28;20351;-70
2022/10/19 15:36:56;;;;;;;;;;;22.10;99.90;;;;;;5003740;28;19929;-69
2022/10/19 15:39:26;;;;;;;;;;;22.10;99.90;;;;;;5004391;28;19926;-70
2022/10/19 15:41:54;;;;;;;;;;;21.80;99.90;;;;;;5001499;28;19926;-70
2022/10/19 15:44:34;;;;;;;;;;;21.40;99.90;;;;;;5000194;28;20020;-70
2022/10/19 15:47:12;;;;;;;;;;;20.90;99.90;;;;;;5000649;28;20024;-70
2022/10/19 15:49:51;;;;;;;;;;;20.30;99.90;;;;;;4998899;28;19976;-70
2022/10/19 15:52:19;;;;;;;;;;;19.80;99.90;;;;;;5008415;28;19956;-69
2022/10/19 15:54:46;;;;;;;;;;;19.20;99.90;;;;;;5008905;28;19976;-70
2022/10/19 15:57:24;;;;;;;;;;;18.80;99.90;;;;;;5011812;28;19957;-69
2022/10/19 15:59:50;;;;;;;;;;;18.50;99.90;;;;;;4998201;28;20378;-68
2022/10/19 16:02:17;;;;;;;;;;;18.30;99.90;;;;;;4998273;28;20032;-68
2022/10/19 16:04:44;;;;;;;;;;;18.00;99.90;;;;;;5003101;28;20394;-68
2022/10/19 16:07:14;;;;;;;;;;;17.80;99.90;;;;;;5003012;28;19949;-68
2022/10/19 16:09:41;;;;;;;;;;;17.60;99.90;;;;;;5002221;28;19929;-68
2022/10/19 16:12:09;;;;;;;;;;;17.50;99.90;;;;;;5004262;28;20439;-68
2022/10/19 16:14:37;;;;;;;;;;;17.20;99.90;;;;;;5012658;28;20396;-67
2022/10/19 16:17:04;;;;;;;;;;;17.00;99.90;;;;;;5011141;28;19926;-68
2022/10/19 16:19:31;;;;;;;;;;;16.90;99.90;;;;;;5008402;28;19975;-68
2022/10/19 16:21:58;;;;;;;;;;;16.70;99.90;;;;;;5007235;28;19925;-68
2022/10/19 16:24:24;;;;;;;;;;;16.40;99.90;;;;;;5007373;28;20020;-68
2022/10/19 16:26:51;;;;;;;;;;;16.20;99.90;;;;;;5005243;28;19925;-68
2022/10/19 16:29:18;;;;;;;;;;;16.00;99.90;;;;;;5005755;28;19976;-68
2022/10/19 16:31:46;;;;;;;;;;;15.90;99.90;;;;;;5005062;28;19925;-68
2022/10/19 16:34:12;;;;;;;;;;;15.80;99.90;;;;;;5007138;28;19996;-66
2022/10/19 16:36:39;;;;;;;;;;;15.60;99.90;;;;;;5003387;28;19957;-69
2022/10/19 16:39:06;;;;;;;;;;;15.50;99.90;;;;;;4998676;28;20355;-68
2022/10/19 16:41:33;;;;;;;;;;;15.40;99.90;;;;;;4997682;28;20433;-68
2022/10/19 16:44:00;;;;;;;;;;;15.30;99.90;;;;;;4998557;28;19929;-68
2022/10/19 16:46:26;;;;;;;;;;;15.20;99.90;;;;;;5007262;28;20459;-69
2022/10/19 16:48:55;;;;;;;;;;;15.10;99.90;;;;;;4997561;28;19929;-69
2022/10/19 16:51:23;;;;;;;;;;;15.00;99.90;;;;;;5007804;28;19925;-69
2022/10/19 16:53:51;;;;;;;;;;;15.00;99.90;;;;;;5007972;28;19929;-69
2022/10/19 16:56:18;;;;;;;;;;;14.90;99.90;;;;;;5005393;28;20028;-68
2022/10/19 16:58:45;;;;;;;;;;;14.80;99.90;;;;;;4999866;28;19930;-67
2022/10/19 17:01:13;;;;;;;;;;;14.80;99.90;;;;;;5003494;28;19926;-68
2022/10/19 17:03:40;;;;;;;;;;;14.70;99.90;;;;;;4999750;28;19926;-67
2022/10/19 17:06:08;;;;;;;;;;;14.70;99.90;;;;;;5004205;28;20307;-68
2022/10/19 17:08:36;;;;;;;;;;;14.60;99.90;;;;;;5001762;28;19925;-68
2022/10/19 17:11:09;;;;;;;;;;;14.60;99.90;;;;;;5008133;28;19925;-68
2022/10/19 17:13:35;;;;;;;;;;;14.60;99.90;;;;;;5001724;28;19939;-68
2022/10/19 17:16:02;;;;;;;;;;;14.50;99.90;;;;;;5003064;28;20422;-68
2022/10/19 17:18:29;;;;;;;;;;;14.50;99.90;;;;;;4996925;28;20357;-68
2022/10/19 17:21:01;;;;;;;;;;;14.50;99.90;;;;;;4998332;28;19925;-67
2022/10/19 17:23:29;;;;;;;;;;;14.50;99.90;;;;;;5010306;28;19929;-68
2022/10/19 17:25:56;;;;;;;;;;;14.50;99.90;;;;;;5003522;28;19925;-68
2022/10/19 17:28:23;;;;;;;;;;;14.40;99.90;;;;;;5004631;28;19926;-67
2022/10/19 17:30:51;;;;;;;;;;;14.40;99.90;;;;;;4997762;28;19926;-68
2022/10/19 17:33:18;;;;;;;;;;;14.40;99.90;;;;;;5001575;28;19929;-67